createdAt,value
2022-07-25T00:01:14.579Z,21.43
2022-07-25T00:03:44.934Z,21.40
2022-07-25T00:06:17.808Z,21.41
2022-07-25T00:08:46.692Z,21.44
2022-07-25T00:11:15.168Z,21.44
2022-07-25T00:13:43.673Z,21.45
2022-07-25T00:16:18.554Z,21.44
2022-07-25T00:18:48.545Z,21.37
2022-07-25T00:21:16.977Z,21.34
2022-07-25T00:23:48.388Z,21.30
2022-07-25T00:26:17.753Z,21.23
2022-07-25T00:28:46.173Z,21.22
2022-07-25T00:31:17.676Z,21.21
2022-07-25T00:33:46.361Z,21.24
2022-07-25T00:36:16.155Z,21.18
2022-07-25T00:38:44.694Z,21.13
2022-07-25T00:41:19.480Z,21.06
2022-07-25T00:43:48.485Z,21.05
2022-07-25T00:46:19.078Z,20.96
2022-07-25T00:48:49.223Z,20.90
2022-07-25T00:51:19.511Z,20.88
2022-07-25T00:53:48.092Z,20.82
2022-07-25T00:56:18.145Z,20.80
2022-07-25T00:58:46.707Z,20.75
2022-07-25T01:01:15.451Z,20.76
2022-07-25T01:03:44.485Z,20.75
2022-07-25T01:06:16.014Z,20.78
2022-07-25T01:08:46.174Z,20.79
2022-07-25T01:11:15.014Z,20.80
2022-07-25T01:13:43.820Z,20.80
2022-07-25T01:16:15.641Z,20.83
2022-07-25T01:18:44.065Z,20.79
2022-07-25T01:21:16.847Z,20.84
2022-07-25T01:23:45.456Z,20.83
2022-07-25T01:26:16.702Z,20.87
2022-07-25T01:28:45.263Z,20.84
2022-07-25T01:31:17.738Z,20.87
2022-07-25T01:33:46.274Z,20.86
2022-07-25T01:36:16.298Z,20.83
2022-07-25T01:38:44.853Z,20.81
2022-07-25T01:41:22.166Z,20.71
2022-07-25T01:43:51.371Z,20.68
2022-07-25T01:46:19.977Z,20.62
2022-07-25T01:48:48.504Z,20.56
2022-07-25T01:51:20.395Z,20.54
2022-07-25T01:53:49.541Z,20.47
2022-07-25T01:56:19.397Z,20.40
2022-07-25T01:58:51.422Z,20.32
2022-07-25T02:01:21.682Z,20.27
2022-07-25T02:03:50.622Z,20.24
2022-07-25T02:06:20.886Z,20.18
2022-07-25T02:08:49.887Z,20.11
2022-07-25T02:11:18.582Z,20.00
2022-07-25T02:13:47.163Z,19.91
2022-07-25T02:16:15.620Z,19.90
2022-07-25T02:18:44.031Z,19.84
2022-07-25T02:21:15.573Z,19.86
2022-07-25T02:23:46.223Z,19.82
2022-07-25T02:26:17.570Z,19.73
2022-07-25T02:28:46.122Z,19.70
2022-07-25T02:31:14.622Z,19.55
2022-07-25T02:33:43.322Z,19.48
2022-07-25T02:36:18.201Z,19.29
2022-07-25T02:38:48.152Z,19.30
2022-07-25T02:41:16.644Z,19.24
2022-07-25T02:43:45.022Z,19.15
2022-07-25T02:46:16.640Z,19.13
2022-07-25T02:48:45.347Z,18.95
2022-07-25T02:51:18.555Z,18.96
2022-07-25T02:53:57.320Z,19.03
2022-07-25T02:56:30.180Z,18.95
2022-07-25T02:59:01.013Z,19.03
2022-07-25T03:01:29.526Z,18.87
2022-07-25T03:03:58.200Z,18.98
2022-07-25T03:06:26.773Z,18.94
2022-07-25T03:08:56.621Z,18.89
2022-07-25T03:11:25.181Z,18.92
2022-07-25T03:13:53.592Z,18.87
2022-07-25T03:16:22.186Z,18.92
2022-07-25T03:18:50.683Z,18.79
2022-07-25T03:21:19.656Z,18.79
2022-07-25T03:23:52.249Z,18.80
2022-07-25T03:26:22.644Z,18.76
2022-07-25T03:28:51.032Z,18.67
2022-07-25T03:31:19.508Z,18.66
2022-07-25T03:33:48.153Z,18.64
2022-07-25T03:36:16.597Z,18.64
2022-07-25T03:38:45.047Z,18.68
2022-07-25T03:41:13.976Z,18.61
2022-07-25T03:43:44.261Z,18.55
2022-07-25T03:46:12.835Z,18.53
2022-07-25T03:48:41.562Z,18.46
2022-07-25T03:51:10.016Z,18.42
2022-07-25T03:53:53.421Z,18.42
2022-07-25T03:56:22.220Z,18.45
2022-07-25T03:58:52.010Z,18.47
2022-07-25T04:01:20.757Z,18.55
2022-07-25T04:03:50.840Z,18.58
2022-07-25T04:06:19.450Z,18.64
2022-07-25T04:08:47.940Z,18.68
2022-07-25T04:11:16.590Z,18.72
2022-07-25T04:13:45.273Z,18.77
2022-07-25T04:16:18.394Z,18.60
2022-07-25T04:18:51.847Z,18.58
2022-07-25T04:21:20.725Z,18.75
2022-07-25T04:23:49.441Z,18.87
2022-07-25T04:26:18.120Z,18.97
2022-07-25T04:28:48.855Z,18.88
2022-07-25T04:31:18.749Z,18.94
2022-07-25T04:33:47.338Z,18.93
2022-07-25T04:36:15.734Z,18.99
2022-07-25T04:38:44.212Z,18.92
2022-07-25T04:41:12.685Z,19.03
2022-07-25T04:43:46.318Z,18.97
2022-07-25T04:46:21.256Z,19.06
2022-07-25T04:48:50.671Z,19.20
2022-07-25T04:51:19.409Z,19.22
2022-07-25T04:53:48.217Z,19.30
2022-07-25T04:56:17.261Z,19.37
2022-07-25T04:58:45.870Z,19.54
2022-07-25T05:01:14.401Z,19.64
2022-07-25T05:03:50.388Z,19.60
2022-07-25T05:06:19.858Z,19.64
2022-07-25T05:08:49.193Z,19.66
2022-07-25T05:11:17.555Z,19.85
2022-07-25T05:13:45.950Z,20.04
2022-07-25T05:16:14.581Z,20.11
2022-07-25T05:18:44.646Z,20.33
2022-07-25T05:21:14.315Z,20.57
2022-07-25T05:23:42.860Z,20.78
2022-07-25T05:26:11.401Z,20.95
2022-07-25T05:28:40.021Z,21.14
2022-07-25T05:31:14.504Z,21.37
2022-07-25T05:33:44.515Z,21.68
2022-07-25T05:36:12.955Z,21.97
2022-07-25T05:38:41.386Z,22.17
2022-07-25T05:41:13.427Z,22.47
2022-07-25T05:43:46.032Z,22.61
2022-07-25T05:46:14.652Z,22.83
2022-07-25T05:48:44.864Z,23.03
2022-07-25T05:51:13.604Z,23.32
2022-07-25T05:53:44.052Z,23.59
2022-07-25T05:56:12.709Z,23.81
2022-07-25T05:58:42.353Z,24.10
2022-07-25T06:01:16.104Z,24.22
2022-07-25T06:03:45.964Z,24.52
2022-07-25T06:06:14.927Z,24.74
2022-07-25T06:08:44.103Z,24.91
2022-07-25T06:11:13.808Z,24.94
2022-07-25T06:13:42.631Z,25.08
2022-07-25T06:16:11.178Z,25.13
2022-07-25T06:18:39.621Z,25.13
2022-07-25T06:21:12.519Z,25.23
2022-07-25T06:23:40.971Z,25.40
2022-07-25T06:26:15.545Z,25.60
2022-07-25T06:28:44.078Z,25.88
2022-07-25T06:31:15.629Z,26.05
2022-07-25T06:33:44.250Z,26.21
2022-07-25T06:36:20.616Z,26.50
2022-07-25T06:38:49.949Z,26.67
2022-07-25T06:41:21.517Z,26.93
2022-07-25T06:43:50.057Z,27.11
2022-07-25T06:46:21.636Z,27.06
2022-07-25T06:48:50.297Z,27.36
2022-07-25T06:51:23.798Z,27.46
2022-07-25T06:53:52.414Z,27.72
2022-07-25T06:56:24.223Z,27.80
2022-07-25T06:58:53.333Z,28.13
2022-07-25T07:01:25.101Z,28.09
2022-07-25T07:03:53.715Z,28.46
2022-07-25T07:06:23.563Z,28.69
2022-07-25T07:08:53.579Z,28.82
2022-07-25T07:11:25.478Z,28.93
2022-07-25T07:13:53.976Z,29.11
2022-07-25T07:16:25.563Z,29.31
2022-07-25T07:18:54.299Z,29.44
2022-07-25T07:21:33.155Z,29.49
2022-07-25T07:24:02.068Z,29.28
2022-07-25T07:26:31.030Z,29.30
2022-07-25T07:28:59.603Z,29.49
2022-07-25T07:36:29.010Z,30.15
2022-07-25T07:38:59.202Z,30.45
2022-07-25T07:41:31.284Z,30.83
2022-07-25T07:44:06.973Z,31.13
2022-07-25T07:46:35.443Z,30.86
2022-07-25T07:49:04.791Z,31.37
2022-07-25T07:51:33.662Z,31.43
2022-07-25T07:54:21.023Z,31.68
2022-07-25T07:56:49.626Z,31.78
2022-07-25T07:59:18.318Z,31.99
2022-07-25T08:01:47.988Z,32.12
2022-07-25T08:04:20.340Z,32.39
2022-07-25T08:06:48.813Z,32.14
2022-07-25T08:09:19.367Z,32.79
2022-07-25T08:11:47.949Z,33.21
2022-07-25T08:14:16.609Z,33.37
2022-07-25T08:16:45.057Z,33.51
2022-07-25T08:19:13.932Z,33.30
2022-07-25T08:21:53.218Z,33.07
2022-07-25T08:24:23.003Z,33.66
2022-07-25T08:26:51.841Z,33.96
2022-07-25T08:29:23.870Z,33.48
2022-07-25T08:31:56.558Z,33.19
2022-07-25T08:34:36.925Z,34.12
2022-07-25T08:37:08.239Z,34.31
2022-07-25T08:39:38.134Z,34.55
2022-07-25T08:42:10.975Z,34.66
2022-07-25T08:44:48.184Z,34.87
2022-07-25T08:47:18.826Z,34.97
2022-07-25T08:49:47.825Z,35.12
2022-07-25T08:52:16.998Z,35.17
2022-07-25T08:54:48.309Z,35.21
2022-07-25T08:57:17.120Z,35.42
2022-07-25T08:59:46.824Z,35.65
2022-07-25T09:02:16.487Z,35.07
2022-07-25T09:04:45.834Z,34.36
2022-07-25T09:07:14.287Z,34.81
2022-07-25T09:09:44.588Z,35.02
2022-07-25T09:12:20.610Z,35.34
2022-07-25T09:14:52.650Z,35.19
2022-07-25T09:17:22.454Z,35.78
2022-07-25T09:19:57.437Z,36.11
2022-07-25T09:22:25.902Z,35.46
2022-07-25T09:24:54.502Z,35.91
2022-07-25T09:27:24.818Z,36.14
2022-07-25T09:29:54.272Z,36.14
2022-07-25T09:32:25.358Z,35.77
2022-07-25T09:34:54.333Z,35.28
2022-07-25T09:37:28.229Z,35.88
2022-07-25T09:39:56.837Z,35.45
2022-07-25T09:42:32.195Z,36.27
2022-07-25T09:45:09.944Z,36.49
2022-07-25T09:47:52.140Z,36.96
2022-07-25T09:50:22.140Z,37.11
2022-07-25T09:52:53.721Z,37.65
2022-07-25T09:55:23.807Z,37.74
2022-07-25T09:57:54.097Z,38.18
2022-07-25T10:00:25.688Z,37.58
2022-07-25T10:03:18.108Z,38.14
2022-07-25T10:09:15.708Z,38.35
2022-07-25T10:12:09.097Z,38.62
2022-07-25T10:14:46.108Z,38.44
2022-07-25T10:17:22.627Z,39.22
2022-07-25T10:19:56.849Z,39.21
2022-07-25T10:22:55.683Z,39.58
2022-07-25T10:25:25.089Z,39.58
2022-07-25T10:28:00.978Z,40.18
2022-07-25T10:30:38.365Z,40.38
2022-07-25T10:33:14.458Z,40.32
2022-07-25T10:35:43.412Z,40.68
2022-07-25T10:38:12.451Z,41.14
2022-07-25T10:40:44.154Z,41.39
2022-07-25T10:43:15.027Z,40.65
2022-07-25T10:45:51.772Z,41.36
2022-07-25T10:48:25.823Z,41.65
2022-07-25T10:51:02.099Z,41.61
2022-07-25T10:53:34.609Z,40.61
2022-07-25T10:56:32.178Z,41.27
2022-07-25T10:59:02.709Z,40.81
2022-07-25T11:01:36.787Z,41.34
2022-07-25T11:04:15.701Z,41.17
2022-07-25T11:06:47.952Z,41.63
2022-07-25T11:09:26.547Z,42.00
2022-07-25T11:12:00.444Z,42.78
2022-07-25T11:14:33.550Z,43.15
2022-07-25T11:17:16.356Z,43.11
2022-07-25T11:19:53.991Z,43.35
2022-07-25T11:22:22.822Z,42.65
2022-07-25T11:24:54.289Z,42.76
2022-07-25T11:27:26.696Z,42.88
2022-07-25T11:30:06.412Z,43.28
2022-07-25T11:32:43.137Z,44.07
2022-07-25T11:35:13.643Z,42.53
2022-07-25T11:37:48.625Z,41.91
2022-07-25T11:40:18.607Z,42.64
2022-07-25T11:42:50.980Z,43.20
2022-07-25T11:45:22.247Z,43.38
2022-07-25T11:48:05.923Z,42.74
2022-07-25T11:50:36.273Z,43.25
2022-07-25T11:53:07.691Z,43.91
2022-07-25T11:55:40.921Z,43.55
2022-07-25T11:58:11.372Z,44.12
2022-07-25T12:00:43.119Z,45.03
2022-07-25T12:03:19.409Z,44.82
2022-07-25T12:05:50.709Z,44.44
2022-07-25T12:08:22.918Z,44.64
2022-07-25T12:10:51.828Z,42.77
2022-07-25T12:13:25.630Z,43.18
2022-07-25T12:15:56.731Z,43.06
2022-07-25T12:18:28.634Z,43.00
2022-07-25T12:20:57.332Z,42.68
2022-07-25T12:23:25.897Z,42.47
2022-07-25T12:25:54.546Z,41.62
2022-07-25T12:28:23.252Z,42.23
2022-07-25T12:30:56.451Z,41.60
2022-07-25T12:33:26.793Z,42.02
2022-07-25T12:35:55.340Z,42.55
2022-07-25T12:38:23.900Z,41.96
2022-07-25T12:40:52.742Z,42.03
2022-07-25T12:43:21.245Z,42.66
2022-07-25T12:45:50.570Z,43.18
2022-07-25T12:48:19.350Z,43.22
2022-07-25T12:50:49.394Z,43.81
2022-07-25T12:53:17.784Z,43.78
2022-07-25T12:55:46.314Z,44.04
2022-07-25T12:58:15.152Z,44.32
2022-07-25T13:00:43.986Z,44.19
2022-07-25T13:03:15.029Z,44.74
2022-07-25T13:05:43.862Z,44.39
2022-07-25T13:08:13.968Z,44.18
2022-07-25T13:10:42.795Z,44.03
2022-07-25T13:13:11.372Z,44.31
2022-07-25T13:15:39.945Z,43.98
2022-07-25T13:18:08.414Z,43.80
2022-07-25T13:20:37.512Z,41.42
2022-07-25T13:23:06.499Z,42.81
2022-07-25T13:25:36.473Z,43.78
2022-07-25T13:28:10.785Z,44.46
2022-07-25T13:30:40.019Z,44.56
2022-07-25T13:33:10.004Z,44.42
2022-07-25T13:35:39.580Z,44.71
2022-07-25T13:38:11.317Z,44.86
2022-07-25T13:40:42.246Z,44.29
2022-07-25T13:43:12.001Z,44.37
2022-07-25T13:45:42.293Z,44.02
2022-07-25T13:48:29.147Z,44.18
2022-07-25T13:50:58.725Z,44.52
2022-07-25T13:53:30.274Z,44.80
2022-07-25T13:56:01.583Z,44.62
2022-07-25T13:58:30.825Z,44.64
2022-07-25T14:00:59.723Z,44.62
2022-07-25T14:03:28.443Z,44.30
2022-07-25T14:05:57.022Z,44.53
2022-07-25T14:08:26.344Z,44.42
2022-07-25T14:10:55.551Z,43.69
2022-07-25T14:13:25.661Z,43.84
2022-07-25T14:15:54.290Z,43.96
2022-07-25T14:18:22.844Z,44.26
2022-07-25T14:20:51.575Z,44.14
2022-07-25T14:23:19.992Z,44.16
2022-07-25T14:25:48.503Z,43.99
2022-07-25T14:28:17.117Z,43.64
2022-07-25T14:30:47.013Z,43.38
2022-07-25T14:33:15.470Z,43.14
2022-07-25T14:35:45.074Z,43.06
2022-07-25T14:38:14.716Z,42.90
2022-07-25T14:40:43.897Z,42.58
2022-07-25T14:43:12.503Z,42.02
2022-07-25T14:45:42.701Z,41.21
2022-07-25T14:48:12.535Z,41.24
2022-07-25T14:50:41.341Z,40.94
2022-07-25T14:53:10.637Z,40.52
2022-07-25T14:55:39.255Z,40.11
2022-07-25T14:58:08.444Z,40.01
2022-07-25T15:00:41.658Z,39.68
2022-07-25T15:03:10.335Z,39.25
2022-07-25T15:05:42.023Z,39.07
2022-07-25T15:08:12.496Z,39.18
2022-07-25T15:10:41.178Z,39.38
2022-07-25T15:15:59.185Z,39.45
2022-07-25T15:18:27.811Z,38.84
2022-07-25T15:20:57.661Z,38.82
2022-07-25T15:23:29.693Z,39.28
2022-07-25T15:26:02.639Z,39.60
2022-07-25T15:28:31.715Z,39.81
2022-07-25T15:31:01.373Z,40.16
2022-07-25T15:33:30.147Z,40.00
2022-07-25T15:36:00.386Z,39.70
2022-07-25T15:38:30.741Z,39.53
2022-07-25T15:41:00.331Z,39.38
2022-07-25T15:43:29.063Z,39.17
2022-07-25T15:45:57.753Z,39.19
2022-07-25T15:48:29.095Z,39.35
2022-07-25T15:51:00.522Z,39.33
2022-07-25T15:53:30.259Z,39.62
2022-07-25T15:55:59.140Z,39.50
2022-07-25T15:58:27.836Z,39.08
2022-07-25T16:00:56.490Z,39.25
2022-07-25T16:03:25.108Z,39.49
2022-07-25T16:05:55.766Z,39.60
2022-07-25T16:08:25.748Z,39.85
2022-07-25T16:10:54.172Z,40.00
2022-07-25T16:13:22.665Z,39.99
2022-07-25T16:15:51.208Z,40.31
2022-07-25T16:18:19.843Z,40.63
2022-07-25T16:20:48.432Z,40.49
2022-07-25T16:23:16.902Z,40.22
2022-07-25T16:25:46.809Z,39.40
2022-07-25T16:28:15.816Z,38.30
2022-07-25T16:30:44.368Z,37.22
2022-07-25T16:33:12.871Z,36.77
2022-07-25T16:35:41.408Z,36.37
2022-07-25T16:38:10.501Z,36.25
2022-07-25T16:40:39.717Z,36.03
2022-07-25T16:43:09.612Z,35.89
2022-07-25T16:45:38.254Z,35.70
2022-07-25T16:48:07.788Z,35.57
2022-07-25T16:50:36.404Z,35.42
2022-07-25T16:53:04.926Z,35.27
2022-07-25T16:55:33.405Z,35.19
2022-07-25T16:58:02.038Z,34.99
2022-07-25T17:00:32.270Z,34.82
2022-07-25T17:03:01.054Z,34.71
2022-07-25T17:05:29.571Z,34.58
2022-07-25T17:07:59.793Z,34.45
2022-07-25T17:10:28.636Z,34.31
2022-07-25T17:12:57.727Z,34.30
2022-07-25T17:15:26.316Z,34.12
2022-07-25T17:17:56.227Z,33.98
2022-07-25T17:20:24.908Z,33.88
2022-07-25T17:22:53.608Z,33.81
2022-07-25T17:25:22.347Z,33.76
2022-07-25T17:27:51.337Z,33.71
2022-07-25T17:30:19.831Z,33.68
2022-07-25T17:32:48.334Z,33.61
2022-07-25T17:35:18.327Z,33.47
2022-07-25T17:37:47.156Z,33.30
2022-07-25T17:40:15.824Z,33.15
2022-07-25T17:42:47.264Z,32.70
2022-07-25T17:45:17.051Z,32.14
2022-07-25T17:47:45.772Z,31.78
2022-07-25T17:50:16.791Z,31.48
2022-07-25T17:52:46.713Z,31.25
2022-07-25T17:55:15.164Z,30.98
2022-07-25T17:57:45.212Z,30.66
2022-07-25T18:00:15.242Z,30.16
2022-07-25T18:02:43.981Z,29.60
2022-07-25T18:05:12.505Z,28.97
2022-07-25T18:07:45.228Z,28.60
2022-07-25T18:10:15.966Z,28.37
2022-07-25T18:12:45.346Z,28.29
2022-07-25T18:15:15.255Z,28.27
2022-07-25T18:17:44.261Z,28.23
2022-07-25T18:20:15.242Z,28.01
2022-07-25T18:22:43.989Z,27.92
2022-07-25T18:25:15.423Z,27.73
2022-07-25T18:27:46.012Z,27.67
2022-07-25T18:30:16.891Z,27.69
2022-07-25T18:32:46.061Z,27.71
2022-07-25T18:35:15.043Z,27.71
2022-07-25T18:37:44.279Z,27.71
2022-07-25T18:40:15.059Z,27.69
2022-07-25T18:42:43.562Z,27.62
2022-07-25T18:45:13.041Z,27.63
2022-07-25T18:47:41.857Z,27.71
2022-07-25T18:50:11.329Z,27.78
2022-07-25T18:52:40.427Z,27.84
2022-07-25T18:55:11.111Z,27.88
2022-07-25T18:57:41.006Z,27.89
2022-07-25T19:00:11.721Z,27.80
2022-07-25T19:02:40.574Z,27.83
2022-07-25T19:05:10.393Z,27.69
2022-07-25T19:07:40.194Z,27.68
2022-07-25T19:10:09.967Z,27.69
2022-07-25T19:12:40.311Z,27.68
2022-07-25T19:15:09.817Z,27.62
2022-07-25T19:17:38.494Z,27.55
2022-07-25T19:20:09.087Z,27.40
2022-07-25T19:22:37.656Z,27.41
2022-07-25T19:25:08.429Z,27.48
2022-07-25T19:27:37.376Z,27.50
2022-07-25T19:30:15.278Z,27.47
2022-07-25T19:32:46.400Z,27.53
2022-07-25T19:35:24.131Z,27.38
2022-07-25T19:37:54.489Z,27.34
2022-07-25T19:40:23.348Z,27.36
2022-07-25T19:42:51.815Z,27.12
2022-07-25T19:45:21.889Z,26.93
2022-07-25T19:47:51.053Z,26.95
2022-07-25T19:50:19.719Z,26.89
2022-07-25T19:52:48.320Z,26.76
2022-07-25T19:55:16.859Z,26.71
2022-07-25T19:57:45.311Z,26.57
2022-07-25T20:00:15.137Z,26.43
2022-07-25T20:02:45.061Z,26.34
2022-07-25T20:05:13.600Z,26.15
2022-07-25T20:07:42.061Z,26.07
2022-07-25T20:10:11.593Z,26.10
2022-07-25T20:12:41.965Z,26.10
2022-07-25T20:15:11.274Z,26.11
2022-07-25T20:17:40.408Z,26.06
2022-07-25T20:20:11.616Z,25.94
2022-07-25T20:22:41.803Z,25.91
2022-07-25T20:25:13.841Z,25.89
2022-07-25T20:27:42.430Z,25.82
2022-07-25T20:30:13.611Z,25.80
2022-07-25T20:32:42.418Z,25.85
2022-07-25T20:35:12.303Z,25.85
2022-07-25T20:37:40.906Z,25.87
2022-07-25T20:40:34.729Z,25.94
2022-07-25T20:43:04.051Z,25.90
2022-07-25T20:45:32.628Z,25.82
2022-07-25T20:48:01.259Z,25.78
2022-07-25T20:50:31.147Z,25.76
2022-07-25T20:52:59.768Z,25.74
2022-07-25T20:55:29.125Z,25.73
2022-07-25T20:57:57.909Z,25.68
2022-07-25T21:00:27.747Z,25.51
2022-07-25T21:02:56.559Z,25.44
2022-07-25T21:05:26.153Z,25.52
2022-07-25T21:07:56.607Z,25.56
2022-07-25T21:10:26.221Z,25.69
2022-07-25T21:12:56.602Z,25.83
2022-07-25T21:15:26.376Z,25.93
2022-07-25T21:17:55.203Z,26.04
2022-07-25T21:20:24.313Z,26.10
2022-07-25T21:22:55.253Z,26.23
2022-07-25T21:25:25.334Z,26.32
2022-07-25T21:27:53.811Z,26.20
2022-07-25T21:30:22.634Z,26.14
2022-07-25T21:32:51.241Z,25.94
2022-07-25T21:35:19.668Z,25.91
2022-07-25T21:37:48.568Z,25.91
2022-07-25T21:40:17.342Z,25.95
2022-07-25T21:42:47.364Z,25.96
2022-07-25T21:45:16.118Z,25.97
2022-07-25T21:47:44.975Z,25.87
2022-07-25T21:50:31.632Z,25.89
2022-07-25T21:53:00.443Z,25.84
2022-07-25T21:55:29.340Z,25.70
2022-07-25T21:57:59.328Z,25.65
2022-07-25T22:00:31.456Z,25.62
2022-07-25T22:03:02.028Z,25.41
2022-07-25T22:05:30.744Z,25.30
2022-07-25T22:07:59.289Z,25.41
2022-07-25T22:10:27.751Z,25.55
2022-07-25T22:12:56.192Z,25.66
2022-07-25T22:15:26.030Z,25.71
2022-07-25T22:17:55.670Z,25.72
2022-07-25T22:20:24.633Z,25.66
2022-07-25T22:22:53.283Z,25.57
2022-07-25T22:25:21.732Z,25.43
2022-07-25T22:27:50.328Z,25.51
2022-07-25T22:30:19.703Z,25.59
2022-07-25T22:32:50.516Z,25.48
2022-07-25T22:35:19.968Z,25.44
2022-07-25T22:37:48.429Z,25.36
2022-07-25T22:40:16.904Z,25.44
2022-07-25T22:42:45.533Z,25.44
2022-07-25T22:45:14.234Z,25.45
2022-07-25T22:47:42.809Z,25.43
2022-07-25T22:50:12.830Z,25.42
2022-07-25T22:52:41.263Z,25.37
2022-07-25T22:55:11.197Z,25.36
2022-07-25T22:57:39.674Z,25.29
2022-07-25T23:00:12.343Z,25.30
2022-07-25T23:02:41.414Z,25.32
2022-07-25T23:05:12.420Z,25.21
2022-07-25T23:07:40.929Z,25.16
2022-07-25T23:10:11.144Z,25.24
2022-07-25T23:12:39.919Z,25.28
2022-07-25T23:15:09.657Z,25.26
2022-07-25T23:17:38.335Z,25.28
2022-07-25T23:20:08.971Z,25.24
2022-07-25T23:22:38.937Z,25.32
2022-07-25T23:25:10.523Z,25.18
2022-07-25T23:27:39.666Z,25.30
2022-07-25T23:30:09.813Z,25.37
2022-07-25T23:32:38.314Z,25.39
2022-07-25T23:35:07.871Z,25.30
2022-07-25T23:37:36.451Z,25.31
2022-07-25T23:40:07.895Z,25.21
2022-07-25T23:42:36.358Z,25.17
2022-07-25T23:45:05.935Z,25.12
2022-07-25T23:47:39.239Z,25.05
2022-07-25T23:50:11.551Z,25.14
2022-07-25T23:52:40.413Z,25.09
2022-07-25T23:55:11.382Z,25.14
2022-07-25T23:57:40.068Z,25.07
